Terminal Aerodrome Forecast
Issued by NWS Los Angeles, CA

Home | Current Version | Previous Version | Text Only | Print | Product List | Glossary On
Versions: 1 2 3 4 5 6 7 8 9 10 11 12 13 14 15 16 17 18 19 20
000
FTUS46 KLOX 010533
TAFSMX
TAF
KSMX 010533Z 0106/0206 VRB03KT P6SM SKC
     FM011100 VRB03KT 1/2SM FG VV002
     FM011500 30006KT 1SM BR OVC004
     FM011700 30012KT P6SM SKC
     FM012000 32020G30KT P6SM SKC
     FM020300 32010KT P6SM BKN004=

USA.gov is the U.S. government's official web portal to all federal, state and local government web resources and services.